Terminal Aerodrome Forecast
Issued by NWS

Current Version | Previous Version | Text Only | Print | Product List | Glossary On
Versions: 1 2 3 4 5 6 7 8 9 10 11 12 13 14 15
000
FTUS44 KLIX 232100 AAA
TAFMSY
TAF AMD
KMSY 232105Z 2321/2418 VRB03KT P6SM SCT030 BKN050
     FM240100 VRB03KT P6SM FEW025 SCT150=

USA.gov is the U.S. government's official web portal to all federal, state and local government web resources and services.